createdAt,value
2017-09-17T00:00:28.311Z,100948.61
2017-09-17T00:02:57.746Z,100952.48
2017-09-17T00:05:27.829Z,100949.34
2017-09-17T00:08:59.608Z,100946.77
2017-09-17T00:11:28.961Z,100944.00
2017-09-17T00:13:58.363Z,100942.64
2017-09-17T00:16:27.938Z,100941.67
2017-09-17T00:18:57.599Z,100942.50
2017-09-17T00:21:27.160Z,100939.59
2017-09-17T00:23:56.595Z,100927.30
2017-09-17T00:26:26.121Z,100937.33
2017-09-17T00:28:55.535Z,100928.73
2017-09-17T00:31:25.053Z,100930.52
2017-09-17T00:33:54.475Z,100933.15
2017-09-17T00:36:24.093Z,100924.93
2017-09-17T00:38:53.498Z,100930.72
2017-09-17T00:41:22.990Z,100936.05
2017-09-17T00:43:52.376Z,100932.94
2017-09-17T00:46:21.839Z,100923.93
2017-09-17T00:48:51.506Z,100922.45
2017-09-17T00:51:20.943Z,100919.58
2017-09-17T00:53:50.290Z,100915.63
2017-09-17T00:56:19.976Z,100919.88
2017-09-17T00:58:49.360Z,100922.09
2017-09-17T01:01:18.828Z,100920.31
2017-09-17T01:03:48.178Z,100912.95
2017-09-17T01:06:17.564Z,100909.80
2017-09-17T01:08:46.961Z,100909.55
2017-09-17T01:11:16.595Z,100907.50
2017-09-17T01:13:46.206Z,100907.50
2017-09-17T01:16:15.850Z,100903.94
2017-09-17T01:18:45.970Z,100913.00
2017-09-17T01:21:15.564Z,100907.96
2017-09-17T01:23:44.903Z,100912.48
2017-09-17T01:26:15.596Z,100906.48
2017-09-17T01:28:45.129Z,100905.52
2017-09-17T01:31:15.174Z,100909.23
2017-09-17T01:33:44.784Z,100903.90
2017-09-17T01:36:14.943Z,100902.97
2017-09-17T01:38:44.337Z,100906.66
2017-09-17T01:41:13.838Z,100905.86
2017-09-17T01:43:43.371Z,100908.86
2017-09-17T01:46:13.107Z,100902.73
2017-09-17T01:48:43.230Z,100907.28
2017-09-17T01:51:12.722Z,100905.37
2017-09-17T01:53:42.663Z,100902.20
2017-09-17T01:56:12.864Z,100898.81
2017-09-17T01:58:49.359Z,100901.56
2017-09-17T02:01:19.453Z,100908.13
2017-09-17T02:03:48.939Z,100911.96
2017-09-17T02:06:18.392Z,100915.52
2017-09-17T02:08:48.096Z,100920.03
2017-09-17T02:11:17.600Z,100926.73
2017-09-17T02:13:46.985Z,100918.39
2017-09-17T02:16:16.521Z,100915.37
2017-09-17T02:18:46.008Z,100917.97
2017-09-17T02:21:15.515Z,100910.20
2017-09-17T02:23:45.044Z,100911.83
2017-09-17T02:26:15.189Z,100915.39
2017-09-17T02:28:44.670Z,100917.46
2017-09-17T02:31:14.293Z,100916.52
2017-09-17T02:33:43.784Z,100917.73
2017-09-17T02:36:13.449Z,100923.61
2017-09-17T02:38:42.959Z,100923.47
2017-09-17T02:41:12.587Z,100921.30
2017-09-17T02:43:42.066Z,100925.68
2017-09-17T02:46:11.775Z,100925.81
2017-09-17T02:48:41.230Z,100918.72
2017-09-17T02:51:10.651Z,100927.73
2017-09-17T02:53:40.114Z,100925.42
2017-09-17T02:56:10.021Z,100928.02
2017-09-17T02:58:39.840Z,100923.25
2017-09-17T03:01:09.624Z,100926.78
2017-09-17T03:03:39.178Z,100922.42
2017-09-17T03:06:09.094Z,100924.33
2017-09-17T03:08:39.036Z,100922.16
2017-09-17T03:11:13.373Z,100921.17
2017-09-17T03:13:43.012Z,100917.38
2017-09-17T03:16:12.489Z,100930.62
2017-09-17T03:18:41.898Z,100934.05
2017-09-17T03:21:12.193Z,100935.97
2017-09-17T03:23:41.917Z,100929.94
2017-09-17T03:26:11.343Z,100929.94
2017-09-17T03:28:40.819Z,100928.30
2017-09-17T03:31:10.579Z,100934.45
2017-09-17T03:33:40.072Z,100931.04
2017-09-17T03:36:09.657Z,100937.33
2017-09-17T03:38:39.062Z,100936.77
2017-09-17T03:41:08.563Z,100928.94
2017-09-17T03:43:38.584Z,100938.08
2017-09-17T03:46:08.177Z,100940.55
2017-09-17T03:48:40.463Z,100937.27
2017-09-17T03:51:12.131Z,100949.69
2017-09-17T03:53:41.447Z,100951.47
2017-09-17T03:56:10.837Z,100957.19
2017-09-17T03:58:41.881Z,100957.75
2017-09-17T04:04:07.942Z,100949.27
2017-09-17T04:06:38.836Z,100952.37
2017-09-17T04:09:08.502Z,100948.30
2017-09-17T04:11:40.202Z,100954.58
2017-09-17T04:14:11.888Z,100949.27
2017-09-17T04:16:41.847Z,100954.33
2017-09-17T04:19:11.637Z,100951.70
2017-09-17T04:21:42.023Z,100958.55
2017-09-17T04:24:12.964Z,100963.04
2017-09-17T04:26:43.722Z,100955.64
2017-09-17T04:29:17.549Z,100957.39
2017-09-17T04:31:47.449Z,100959.76
2017-09-17T04:34:17.439Z,100952.66
2017-09-17T04:36:47.852Z,100959.09
2017-09-17T04:39:17.823Z,100953.77
2017-09-17T04:41:49.934Z,100961.28
2017-09-17T04:44:19.998Z,100955.54
2017-09-17T04:46:49.889Z,100956.22
2017-09-17T04:49:19.682Z,100961.13
2017-09-17T04:51:49.673Z,100963.98
2017-09-17T04:54:20.818Z,100965.76
2017-09-17T04:56:51.146Z,100971.50
2017-09-17T04:59:21.000Z,100963.71
2017-09-17T05:01:50.664Z,100970.82
2017-09-17T05:04:20.551Z,100969.73
2017-09-17T05:06:50.300Z,100965.20
2017-09-17T05:09:20.194Z,100963.58
2017-09-17T05:11:50.454Z,100964.80
2017-09-17T05:14:20.227Z,100970.00
2017-09-17T05:16:49.956Z,100967.56
2017-09-17T05:19:20.186Z,100974.51
2017-09-17T05:21:49.892Z,100967.16
2017-09-17T05:24:19.698Z,100966.47
2017-09-17T05:26:50.202Z,100971.12
2017-09-17T05:29:20.467Z,100975.06
2017-09-17T05:31:51.234Z,100976.03
2017-09-17T05:34:21.020Z,100979.73
2017-09-17T05:36:51.742Z,100984.94
2017-09-17T05:39:21.608Z,100984.83
2017-09-17T05:41:52.227Z,100981.67
2017-09-17T05:44:24.871Z,100988.67
2017-09-17T05:46:54.622Z,100983.79
2017-09-17T05:49:24.135Z,100987.61
2017-09-17T05:51:53.686Z,100990.34
2017-09-17T05:54:23.178Z,100989.94
2017-09-17T05:56:53.036Z,100994.73
2017-09-17T05:59:23.307Z,101001.55
2017-09-17T06:01:53.271Z,100997.05
2017-09-17T06:04:23.189Z,100994.19
2017-09-17T06:06:53.288Z,100994.03
2017-09-17T06:09:23.098Z,100999.93
2017-09-17T06:11:53.950Z,100997.28
2017-09-17T06:14:24.163Z,100994.26
2017-09-17T06:16:53.896Z,100992.18
2017-09-17T06:19:24.367Z,100992.00
2017-09-17T06:21:56.001Z,100999.58
2017-09-17T06:24:25.695Z,101001.45
2017-09-17T06:26:56.186Z,101005.30
2017-09-17T06:29:26.250Z,101003.39
2017-09-17T06:31:56.047Z,101001.19
2017-09-17T06:34:27.043Z,101006.39
2017-09-17T06:36:56.900Z,101008.39
2017-09-17T06:39:27.557Z,101013.86
2017-09-17T06:42:00.330Z,101009.57
2017-09-17T06:44:31.857Z,101015.11
2017-09-17T06:47:01.683Z,101019.97
2017-09-17T06:49:31.726Z,101021.42
2017-09-17T06:52:01.347Z,101021.42
2017-09-17T06:54:30.937Z,101025.62
2017-09-17T06:57:00.589Z,101027.64
2017-09-17T06:59:30.158Z,101022.92
2017-09-17T07:01:59.942Z,101026.34
2017-09-17T07:04:29.634Z,101027.34
2017-09-17T07:06:59.321Z,101027.30
2017-09-17T07:09:29.683Z,101028.69
2017-09-17T07:12:00.739Z,101025.22
2017-09-17T07:14:31.117Z,101035.59
2017-09-17T07:17:06.155Z,101028.28
2017-09-17T07:19:37.274Z,101027.29
2017-09-17T07:22:07.443Z,101025.91
2017-09-17T07:24:37.030Z,101023.95
2017-09-17T07:27:06.833Z,101026.83
2017-09-17T07:29:36.508Z,101032.02
2017-09-17T07:32:07.328Z,101031.95
2017-09-17T07:34:36.918Z,101035.14
2017-09-17T07:37:07.006Z,101037.67
2017-09-17T07:39:36.577Z,101037.52
2017-09-17T07:42:06.214Z,101038.62
2017-09-17T07:44:35.760Z,101038.50
2017-09-17T07:47:05.381Z,101037.73
2017-09-17T07:49:35.104Z,101039.09
2017-09-17T07:52:05.046Z,101041.98
2017-09-17T07:54:34.779Z,101043.33
2017-09-17T07:57:04.563Z,101037.94
2017-09-17T07:59:34.215Z,101047.09
2017-09-17T08:02:05.586Z,101045.02
2017-09-17T08:04:35.246Z,101041.56
2017-09-17T08:07:05.719Z,101039.73
2017-09-17T08:09:37.375Z,101038.09
2017-09-17T08:12:07.026Z,101039.88
2017-09-17T08:14:37.533Z,101032.63
2017-09-17T08:17:07.550Z,101031.13
2017-09-17T08:19:37.172Z,101028.70
2017-09-17T08:22:11.025Z,101027.72
2017-09-17T08:24:41.268Z,101034.61
2017-09-17T08:27:11.050Z,101030.45
2017-09-17T08:29:40.725Z,101025.37
2017-09-17T08:32:10.554Z,101028.22
2017-09-17T08:34:40.945Z,101020.52
2017-09-17T08:37:11.632Z,101022.88
2017-09-17T08:39:41.110Z,101016.43
2017-09-17T08:42:10.904Z,101016.73
2017-09-17T08:44:40.573Z,101019.59
2017-09-17T08:47:10.769Z,101005.11
2017-09-17T08:49:40.666Z,101006.27
2017-09-17T08:52:10.330Z,101005.80
2017-09-17T08:54:40.006Z,101007.30
2017-09-17T08:57:09.598Z,100998.48
2017-09-17T08:59:39.314Z,100998.07
2017-09-17T09:02:09.022Z,100991.81
2017-09-17T09:04:38.763Z,100990.14
2017-09-17T09:07:10.315Z,100981.52
2017-09-17T09:09:41.142Z,100994.66
2017-09-17T09:12:11.427Z,100994.67
2017-09-17T09:14:42.283Z,100994.69
2017-09-17T09:17:12.755Z,100995.47
2017-09-17T09:19:42.466Z,100995.39
2017-09-17T09:22:13.943Z,100997.71
2017-09-17T09:24:43.619Z,100991.96
2017-09-17T09:27:13.210Z,100981.94
2017-09-17T09:29:42.733Z,100983.84
2017-09-17T09:32:12.325Z,100983.55
2017-09-17T09:34:41.880Z,100983.06
2017-09-17T09:37:11.524Z,100981.86
2017-09-17T09:39:41.226Z,100991.11
2017-09-17T09:42:11.209Z,100979.67
2017-09-17T09:44:41.241Z,100978.31
2017-09-17T09:47:11.515Z,100984.11
2017-09-17T09:49:41.197Z,100978.36
2017-09-17T09:52:10.946Z,100978.56
2017-09-17T09:54:40.916Z,100975.36
2017-09-17T09:57:10.789Z,100974.38
2017-09-17T09:59:40.680Z,100971.08
2017-09-17T10:02:10.618Z,100970.20
2017-09-17T10:04:40.360Z,100971.92
2017-09-17T10:07:09.947Z,100965.75
2017-09-17T10:09:39.557Z,100962.34
2017-09-17T10:12:09.267Z,100967.17
2017-09-17T10:14:38.862Z,100962.41
2017-09-17T10:17:08.385Z,100967.91
2017-09-17T10:19:38.036Z,100966.81
2017-09-17T10:22:07.700Z,100950.83
2017-09-17T10:24:37.308Z,100957.03
2017-09-17T10:27:06.995Z,100954.50
2017-09-17T10:29:36.656Z,100955.64
2017-09-17T10:32:06.324Z,100954.88
2017-09-17T10:34:36.127Z,100955.00
2017-09-17T10:37:05.832Z,100952.94
2017-09-17T10:39:35.646Z,100955.13
2017-09-17T10:42:05.295Z,100953.43
2017-09-17T10:44:34.866Z,100953.43
2017-09-17T10:47:05.303Z,100950.62
2017-09-17T10:49:34.971Z,100950.23
2017-09-17T10:52:04.796Z,100942.94
2017-09-17T10:54:34.567Z,100943.09
2017-09-17T10:57:04.257Z,100943.69
2017-09-17T10:59:34.988Z,100938.92
2017-09-17T11:02:04.639Z,100942.39
2017-09-17T11:04:34.130Z,100941.50
2017-09-17T11:07:04.252Z,100933.73
2017-09-17T11:09:33.753Z,100932.84
2017-09-17T11:12:03.286Z,100922.45
2017-09-17T11:14:32.839Z,100925.52
2017-09-17T11:17:02.428Z,100918.09
2017-09-17T11:19:31.966Z,100912.75
2017-09-17T11:22:01.504Z,100910.38
2017-09-17T11:24:31.005Z,100909.41
2017-09-17T11:27:00.620Z,100905.16
2017-09-17T11:29:30.750Z,100899.73
2017-09-17T11:32:00.337Z,100898.23
2017-09-17T11:34:31.431Z,100896.84
2017-09-17T11:37:01.189Z,100884.84
2017-09-17T11:39:30.754Z,100888.78
2017-09-17T11:42:00.308Z,100881.37
2017-09-17T11:44:29.831Z,100880.98
2017-09-17T11:46:59.643Z,100886.34
2017-09-17T11:49:30.600Z,100878.38
2017-09-17T11:52:00.612Z,100876.14
2017-09-17T11:54:30.557Z,100867.40
2017-09-17T11:57:01.274Z,100861.99
2017-09-17T11:59:32.090Z,100867.28
2017-09-17T12:02:02.002Z,100854.33
2017-09-17T12:04:31.619Z,100850.17
2017-09-17T12:07:01.515Z,100848.91
2017-09-17T12:09:31.087Z,100845.30
2017-09-17T12:12:02.006Z,100840.13
2017-09-17T12:14:32.803Z,100847.89
2017-09-17T12:17:02.735Z,100846.53
2017-09-17T12:19:32.584Z,100844.58
2017-09-17T12:22:02.218Z,100838.55
2017-09-17T12:24:34.597Z,100836.50
2017-09-17T12:27:16.598Z,100835.18
2017-09-17T12:29:51.503Z,100837.30
2017-09-17T12:32:21.484Z,100830.33
2017-09-17T12:34:51.560Z,100828.69
2017-09-17T12:37:21.381Z,100825.83
2017-09-17T12:39:51.082Z,100829.14
2017-09-17T12:42:20.870Z,100832.55
2017-09-17T12:44:50.706Z,100830.55
2017-09-17T12:47:20.533Z,100826.86
2017-09-17T12:49:51.087Z,100825.34
2017-09-17T12:52:20.938Z,100821.84
2017-09-17T12:54:50.574Z,100824.64
2017-09-17T12:57:20.351Z,100823.81
2017-09-17T12:59:50.258Z,100824.25
2017-09-17T13:02:20.703Z,100834.95
2017-09-17T13:04:52.175Z,100831.09
2017-09-17T13:07:23.121Z,100833.22
2017-09-17T13:09:53.175Z,100834.06
2017-09-17T13:12:26.365Z,100835.73
2017-09-17T13:15:00.136Z,100832.34
2017-09-17T13:17:31.540Z,100832.20
2017-09-17T13:20:01.655Z,100826.38
2017-09-17T13:22:31.980Z,100823.31
2017-09-17T13:25:01.754Z,100829.44
2017-09-17T13:27:31.671Z,100831.39
2017-09-17T13:30:01.518Z,100829.67
2017-09-17T13:32:32.266Z,100832.85
2017-09-17T13:35:02.186Z,100831.39
2017-09-17T13:37:35.836Z,100837.09
2017-09-17T13:40:06.734Z,100828.81
2017-09-17T13:42:46.659Z,100820.17
2017-09-17T13:45:17.367Z,100814.98
2017-09-17T13:47:47.934Z,100811.39
2017-09-17T13:50:20.768Z,100818.98
2017-09-17T13:52:52.033Z,100821.43
2017-09-17T13:55:24.586Z,100812.41
2017-09-17T13:57:55.440Z,100809.95
2017-09-17T14:00:25.967Z,100803.83
2017-09-17T14:02:56.896Z,100802.09
2017-09-17T14:05:27.458Z,100797.81
2017-09-17T14:07:57.241Z,100801.77
2017-09-17T14:10:27.683Z,100800.01
2017-09-17T14:12:57.583Z,100796.18
2017-09-17T14:15:27.566Z,100801.34
2017-09-17T14:17:57.799Z,100798.53
2017-09-17T14:20:27.570Z,100792.13
2017-09-17T14:22:57.481Z,100794.66
2017-09-17T14:25:30.560Z,100800.09
2017-09-17T14:28:03.574Z,100793.69
2017-09-17T14:30:33.323Z,100792.80
2017-09-17T14:33:02.923Z,100796.63
2017-09-17T14:35:32.506Z,100801.14
2017-09-17T14:38:02.127Z,100793.64
2017-09-17T14:40:31.817Z,100797.11
2017-09-17T14:43:01.428Z,100798.16
2017-09-17T14:45:31.021Z,100788.28
2017-09-17T14:48:00.555Z,100787.57
2017-09-17T14:50:30.247Z,100791.55
2017-09-17T14:52:59.766Z,100787.17
2017-09-17T14:55:29.583Z,100792.16
2017-09-17T14:57:59.257Z,100784.12
2017-09-17T15:00:28.906Z,100786.33
2017-09-17T15:03:01.074Z,100787.67
2017-09-17T15:05:40.269Z,100785.32
2017-09-17T15:08:09.989Z,100785.10
2017-09-17T15:10:40.753Z,100788.22
2017-09-17T15:13:10.452Z,100789.36
2017-09-17T15:15:40.050Z,100787.06
2017-09-17T15:18:24.759Z,100788.58
2017-09-17T15:20:55.104Z,100782.63
2017-09-17T15:23:24.827Z,100779.37
2017-09-17T15:25:55.372Z,100783.13
2017-09-17T15:28:24.937Z,100782.50
2017-09-17T15:30:55.726Z,100784.36
2017-09-17T15:33:25.545Z,100785.89
2017-09-17T15:35:55.775Z,100779.11
2017-09-17T15:38:26.501Z,100777.81
2017-09-17T15:40:56.403Z,100772.08
2017-09-17T15:43:28.573Z,100774.83
2017-09-17T15:45:59.831Z,100769.83
2017-09-17T15:48:29.584Z,100771.88
2017-09-17T15:50:59.297Z,100773.18
2017-09-17T15:53:29.371Z,100769.99
2017-09-17T15:56:00.010Z,100770.23
2017-09-17T15:58:29.679Z,100768.77
2017-09-17T16:00:59.319Z,100766.67
2017-09-17T16:03:28.887Z,100770.52
2017-09-17T16:05:58.530Z,100770.92
2017-09-17T16:08:28.166Z,100766.14
2017-09-17T16:10:57.982Z,100774.80
2017-09-17T16:13:33.499Z,100775.55
2017-09-17T16:16:04.217Z,100777.39
2017-09-17T16:18:33.962Z,100780.52
2017-09-17T16:21:03.742Z,100776.91
2017-09-17T16:23:33.505Z,100773.88
2017-09-17T16:26:03.138Z,100782.10
2017-09-17T16:28:32.931Z,100780.41
2017-09-17T16:31:02.602Z,100784.23
2017-09-17T16:33:32.245Z,100777.73
2017-09-17T16:36:01.981Z,100787.73
2017-09-17T16:38:31.601Z,100791.80
2017-09-17T16:41:01.223Z,100799.38
2017-09-17T16:43:30.846Z,100797.34
2017-09-17T16:46:00.451Z,100795.63
2017-09-17T16:48:29.973Z,100794.74
2017-09-17T16:50:59.527Z,100792.64
2017-09-17T16:53:29.078Z,100801.28
2017-09-17T16:55:58.865Z,100804.67
2017-09-17T16:58:28.431Z,100807.27
2017-09-17T17:00:58.923Z,100801.80
2017-09-17T17:03:28.501Z,100801.70
2017-09-17T17:05:59.172Z,100806.00
2017-09-17T17:08:29.009Z,100801.91
2017-09-17T17:11:00.023Z,100802.30
2017-09-17T17:13:29.776Z,100812.37
2017-09-17T17:15:59.464Z,100803.25
2017-09-17T17:18:32.742Z,100801.60
2017-09-17T17:21:02.315Z,100810.26
2017-09-17T17:23:31.896Z,100810.25
2017-09-17T17:26:01.530Z,100813.13
2017-09-17T17:28:31.007Z,100820.48
2017-09-17T17:31:04.354Z,100813.70
2017-09-17T17:33:33.951Z,100815.70
2017-09-17T17:36:03.613Z,100822.20
2017-09-17T17:38:55.341Z,100818.80
2017-09-17T17:41:25.067Z,100819.86
2017-09-17T17:44:19.732Z,100824.38
2017-09-17T17:46:58.279Z,100821.89
2017-09-17T17:49:27.968Z,100826.41
2017-09-17T17:51:57.639Z,100826.27
2017-09-17T17:54:27.415Z,100830.70
2017-09-17T17:56:58.749Z,100822.96
2017-09-17T17:59:29.067Z,100815.20
2017-09-17T18:02:03.644Z,100819.67
2017-09-17T18:04:34.801Z,100821.33
2017-09-17T18:07:04.871Z,100818.69
2017-09-17T18:09:37.104Z,100822.38
2017-09-17T18:15:11.702Z,100824.25
2017-09-17T18:17:41.393Z,100828.50
2017-09-17T18:20:12.141Z,100821.47
2017-09-17T18:23:01.910Z,100822.25
2017-09-17T18:25:32.649Z,100824.75
2017-09-17T18:28:02.499Z,100825.41
2017-09-17T18:30:32.422Z,100831.55
2017-09-17T18:33:02.286Z,100831.25
2017-09-17T18:35:31.982Z,100833.81
2017-09-17T18:38:01.569Z,100834.48
2017-09-17T18:40:36.071Z,100835.47
2017-09-17T18:43:06.627Z,100831.22
2017-09-17T18:45:36.638Z,100834.17
2017-09-17T18:48:08.183Z,100834.32
2017-09-17T18:50:42.130Z,100831.22
2017-09-17T18:53:11.826Z,100833.19
2017-09-17T18:55:41.531Z,100836.41
2017-09-17T18:58:11.247Z,100829.89
2017-09-17T19:00:43.207Z,100829.75
2017-09-17T19:03:16.025Z,100827.13
2017-09-17T19:05:47.467Z,100827.78
2017-09-17T19:08:17.122Z,100829.39
2017-09-17T19:10:47.389Z,100835.66
2017-09-17T19:13:17.432Z,100835.28
2017-09-17T19:15:48.228Z,100832.20
2017-09-17T19:18:18.119Z,100832.47
2017-09-17T19:20:48.128Z,100829.87
2017-09-17T19:23:21.019Z,100822.12
2017-09-17T19:25:51.071Z,100829.34
2017-09-17T19:28:20.957Z,100815.02
2017-09-17T19:30:50.775Z,100818.38
2017-09-17T19:33:20.400Z,100816.27
2017-09-17T19:35:50.383Z,100819.23
2017-09-17T19:38:19.989Z,100817.38
2017-09-17T19:40:53.429Z,100818.96
2017-09-17T19:43:43.009Z,100825.51
2017-09-17T19:46:19.266Z,100819.03
2017-09-17T19:48:51.166Z,100825.53
2017-09-17T19:51:24.046Z,100842.25
2017-09-17T19:54:00.582Z,100846.47
2017-09-17T19:56:33.861Z,100843.13
2017-09-17T19:59:16.572Z,100845.99
2017-09-17T20:04:43.924Z,100853.58
2017-09-17T20:07:26.581Z,100856.98
2017-09-17T20:09:59.671Z,100858.66
2017-09-17T20:12:32.996Z,100864.16
2017-09-17T20:15:03.903Z,100864.59
2017-09-17T20:17:48.273Z,100868.38
2017-09-17T20:20:45.008Z,100866.25
2017-09-17T20:26:40.014Z,100862.66
2017-09-17T20:29:14.082Z,100866.09
2017-09-17T20:31:43.606Z,100867.55
2017-09-17T20:34:19.988Z,100866.95
2017-09-17T20:36:49.528Z,100868.45
2017-09-17T20:39:19.081Z,100872.55
2017-09-17T20:41:48.822Z,100871.83
2017-09-17T20:44:18.341Z,100877.36
2017-09-17T20:46:47.895Z,100882.86
2017-09-17T20:49:17.499Z,100879.50
2017-09-17T20:53:08.107Z,100886.23
2017-09-17T20:55:38.097Z,100884.56
2017-09-17T20:58:09.547Z,100879.12
2017-09-17T21:00:39.284Z,100875.14
2017-09-17T21:03:09.434Z,100875.36
2017-09-17T21:05:39.337Z,100870.06
2017-09-17T21:08:09.022Z,100870.20
2017-09-17T21:10:38.731Z,100867.55
2017-09-17T21:13:08.258Z,100869.73
2017-09-17T21:15:38.360Z,100869.12
2017-09-17T21:18:08.029Z,100867.63
2017-09-17T21:20:37.788Z,100867.86
2017-09-17T21:23:07.359Z,100866.57
2017-09-17T21:25:37.457Z,100869.05
2017-09-17T21:28:07.381Z,100872.06
2017-09-17T21:30:37.106Z,100877.01
2017-09-17T21:33:06.850Z,100880.06
2017-09-17T21:35:36.733Z,100872.02
2017-09-17T21:38:06.755Z,100877.78
2017-09-17T21:40:36.727Z,100874.48
2017-09-17T21:43:06.470Z,100880.20
2017-09-17T21:45:36.013Z,100883.83
2017-09-17T21:48:06.963Z,100879.34
2017-09-17T21:50:39.494Z,100878.41
2017-09-17T21:53:09.055Z,100875.70
2017-09-17T21:55:38.645Z,100878.47
2017-09-17T21:58:08.193Z,100878.52
2017-09-17T22:00:37.737Z,100881.56
2017-09-17T22:03:07.558Z,100887.00
2017-09-17T22:05:37.167Z,100887.34
2017-09-17T22:08:07.067Z,100886.52
2017-09-17T22:10:37.115Z,100882.73
2017-09-17T22:13:06.754Z,100883.14
2017-09-17T22:15:36.397Z,100881.79
2017-09-17T22:18:05.894Z,100873.62
2017-09-17T22:20:35.475Z,100884.58
2017-09-17T22:23:05.064Z,100885.27
2017-09-17T22:25:34.763Z,100872.44
2017-09-17T22:28:04.379Z,100870.09
2017-09-17T22:30:33.926Z,100870.66
2017-09-17T22:33:03.438Z,100873.54
2017-09-17T22:35:33.034Z,100871.88
2017-09-17T22:38:02.539Z,100871.94
2017-09-17T22:40:32.165Z,100864.93
2017-09-17T22:43:02.287Z,100871.20
2017-09-17T22:45:36.539Z,100871.95
2017-09-17T22:48:09.928Z,100871.13
2017-09-17T22:50:42.473Z,100872.50
2017-09-17T22:53:12.907Z,100870.11
2017-09-17T22:55:43.847Z,100871.32
2017-09-17T22:58:13.614Z,100874.21
2017-09-17T23:00:43.154Z,100877.17
2017-09-17T23:03:12.654Z,100875.25
2017-09-17T23:05:42.402Z,100876.77
2017-09-17T23:08:12.927Z,100873.06
2017-09-17T23:10:42.595Z,100875.54
2017-09-17T23:13:12.966Z,100878.14
2017-09-17T23:15:42.671Z,100870.94
2017-09-17T23:18:12.330Z,100864.45
2017-09-17T23:20:42.411Z,100856.62
2017-09-17T23:23:11.933Z,100859.78
2017-09-17T23:25:41.671Z,100860.19
2017-09-17T23:28:11.245Z,100863.70
2017-09-17T23:30:40.873Z,100865.84
2017-09-17T23:33:10.386Z,100868.35
2017-09-17T23:35:39.931Z,100863.82
2017-09-17T23:38:09.551Z,100859.72
2017-09-17T23:40:39.155Z,100862.26
2017-09-17T23:43:08.682Z,100863.80
2017-09-17T23:45:38.222Z,100863.44
2017-09-17T23:48:07.730Z,100864.67
2017-09-17T23:50:37.291Z,100870.72
2017-09-17T23:53:06.834Z,100867.17
2017-09-17T23:55:36.516Z,100868.16
2017-09-17T23:58:06.080Z,100869.27
